Time;durP1;ratioP1;P1;durP2;ratioP2;P2;SDS_P1;SDS_P2;PMS_P1;PMS_P2;Temp;Humidity;BMP_temperature;BMP_pressure;BME280_temperature;BME280_humidity;BME280_pressure;Samples;Min_cycle;Max_cycle;Signal;HPM_P1;HPM_P2
2024/01/15 00:00:57;;;;;;;42.70;23.10;;;;;;;20.08;46.26;99130.94;41369935;28;20051;-72
2024/01/15 00:20:58;;;;;;;41.03;21.92;;;;;;;19.91;46.89;99098.34;41377786;28;20513;-73
2024/01/15 00:40:58;;;;;;;34.58;20.33;;;;;;;19.89;47.22;99045.94;41423314;28;20051;-72
2024/01/15 01:00:59;;;;;;;33.05;19.50;;;;;;;19.99;46.94;99044.13;41366547;28;20414;-73
2024/01/15 01:21:01;;;;;;;31.17;18.80;;;;;;;20.00;46.73;99010.78;41397086;28;20077;-72
2024/01/15 01:41:02;;;;;;;26.98;16.40;;;;;;;20.06;46.67;99001.50;41393366;28;20034;-73
2024/01/15 02:01:02;;;;;;;25.83;15.50;;;;;;;20.03;46.70;98965.00;41391301;28;20046;-73
2024/01/15 02:21:03;;;;;;;24.35;14.82;;;;;;;20.03;46.82;98950.09;41368517;28;20068;-73
2024/01/15 02:41:04;;;;;;;23.23;14.15;;;;;;;20.06;46.40;98920.06;41338997;28;20046;-73
2024/01/15 03:01:04;;;;;;;22.02;13.48;;;;;;;20.06;46.88;98922.69;41398954;28;20054;-73
2024/01/15 03:21:07;;;;;;;19.77;12.88;;;;;;;20.01;46.41;98860.06;41373522;28;20513;-73
2024/01/15 03:41:07;;;;;;;18.67;12.40;;;;;;;20.10;46.26;98892.50;41396784;28;20057;-72
2024/01/15 04:01:11;;;;;;;19.60;12.93;;;;;;;20.53;45.64;98876.97;41407282;28;20076;-72
2024/01/15 04:21:14;;;;;;;17.05;11.13;;;;;;;20.32;45.78;98841.28;41434338;28;20058;-73
2024/01/15 04:41:16;;;;;;;16.83;11.50;;;;;;;20.21;46.21;98825.75;41407241;28;20206;-73
2024/01/15 05:01:17;;;;;;;17.02;11.68;;;;;;;20.09;46.61;98839.13;41415123;28;20524;-73
2024/01/15 05:21:17;;;;;;;18.30;11.88;;;;;;;20.33;45.90;98858.72;41370652;28;20079;-77
2024/01/15 05:41:18;;;;;;;25.80;12.98;;;;;;;20.98;45.35;98846.25;41412465;28;20054;-74
2024/01/15 06:01:18;;;;;;;27.25;14.68;;;;;;;20.21;44.05;98852.03;41395626;28;20420;-71
2024/01/15 06:21:20;;;;;;;25.08;14.30;;;;;;;20.90;43.54;98831.25;41415005;28;20560;-77
2024/01/15 06:41:20;;;;;;;21.33;13.02;;;;;;;20.99;41.61;98817.16;41422436;28;20085;-74
2024/01/15 07:01:21;;;;;;;20.55;13.02;;;;;;;21.04;42.10;98841.19;41330869;28;20105;-72
2024/01/15 07:21:21;;;;;;;18.25;12.18;;;;;;;21.28;41.57;98866.81;41406438;28;20049;-72
2024/01/15 07:41:21;;;;;;;18.23;11.43;;;;;;;21.46;42.30;98879.09;41399722;28;20068;-71
2024/01/15 08:01:22;;;;;;;19.77;12.68;;;;;;;21.49;41.94;98891.94;41464838;28;20053;-70
2024/01/15 08:21:22;;;;;;;16.23;11.40;;;;;;;21.39;41.96;98910.50;41349695;28;20089;-73
2024/01/15 08:41:24;;;;;;;30.55;15.80;;;;;;;21.42;41.52;98910.19;41444887;28;20058;-69
2024/01/15 09:01:26;;;;;;;93.35;34.35;;;;;;;21.44;41.80;98918.75;41503993;28;20074;-69
2024/01/15 09:21:33;;;;;;;98.72;37.45;;;;;;;21.54;41.67;98920.44;41484027;28;20033;-71
2024/01/15 09:41:35;;;;;;;85.95;31.75;;;;;;;21.67;41.49;98902.44;41354348;28;20054;-69
2024/01/15 10:01:37;;;;;;;64.65;27.70;;;;;;;21.78;41.90;98839.91;41430424;28;20671;-68
2024/01/15 10:21:38;;;;;;;52.42;23.77;;;;;;;21.96;42.32;98830.06;41447929;28;20045;-70
2024/01/15 10:41:39;;;;;;;43.00;21.85;;;;;;;22.08;41.42;98812.13;41444567;28;20043;-67
2024/01/15 11:01:41;;;;;;;38.08;19.35;;;;;;;22.06;41.20;98808.84;41455597;28;20163;-73
2024/01/15 11:21:43;;;;;;;32.80;16.77;;;;;;;22.15;41.15;98789.38;41372376;28;20047;-70
2024/01/15 11:41:43;;;;;;;28.90;14.27;;;;;;;22.29;41.12;98776.53;41419584;28;20046;-71
2024/01/15 12:01:44;;;;;;;27.08;13.52;;;;;;;22.46;41.59;98759.75;41423107;28;20410;-69
2024/01/15 12:21:44;;;;;;;20.83;11.05;;;;;;;22.60;42.20;98739.78;41425112;28;20050;-68
2024/01/15 12:41:45;;;;;;;19.38;10.18;;;;;;;22.55;44.26;98719.19;41367363;28;20115;-69
2024/01/15 13:01:46;;;;;;;16.92;9.05;;;;;;;22.78;43.48;98705.28;41354894;28;20050;-69
2024/01/15 13:21:46;;;;;;;14.10;7.88;;;;;;;22.77;42.82;98703.63;41457243;28;20046;-69
2024/01/15 13:41:47;;;;;;;17.42;7.75;;;;;;;22.48;43.08;98712.13;41455078;28;20046;-68
2024/01/15 14:01:47;;;;;;;13.52;6.50;;;;;;;22.32;43.15;98712.94;41421375;28;20043;-72
2024/01/15 14:21:48;;;;;;;14.25;7.15;;;;;;;22.18;43.84;98709.16;41433856;28;20046;-75
2024/01/15 14:41:48;;;;;;;16.98;8.77;;;;;;;22.07;41.65;98715.59;41425177;28;20419;-74
2024/01/15 15:01:49;;;;;;;18.20;7.60;;;;;;;21.78;44.28;98724.81;41419191;28;20112;-73
2024/01/15 15:21:49;;;;;;;13.15;6.75;;;;;;;21.69;44.63;98723.97;41391860;28;20084;-71
2024/01/15 15:41:50;;;;;;;11.40;5.65;;;;;;;21.62;44.49;98724.78;41433114;28;20050;-69
2024/01/15 16:01:50;;;;;;;17.27;6.40;;;;;;;21.77;45.09;98740.78;41405043;28;21080;-68
2024/01/15 16:21:52;;;;;;;10.95;5.43;;;;;;;21.66;46.69;98757.72;41447237;28;20045;-69
2024/01/15 16:41:52;;;;;;;12.18;4.47;;;;;;;21.62;46.51;98778.28;41448590;28;20041;-76
2024/01/15 17:01:55;;;;;;;10.30;3.97;;;;;;;21.42;46.05;98818.03;41473206;28;20528;-76
2024/01/15 17:21:55;;;;;;;10.43;5.82;;;;;;;21.35;46.61;98824.06;41445816;28;20050;-75
2024/01/15 17:41:56;;;;;;;8.27;3.90;;;;;;;21.34;46.34;98822.44;41451631;28;20421;-73
2024/01/15 18:01:57;;;;;;;5.65;3.30;;;;;;;21.25;46.61;98829.47;41409432;28;20169;-76
2024/01/15 18:21:57;;;;;;;7.32;3.50;;;;;;;21.27;48.50;98846.75;41400576;28;20049;-75
2024/01/15 18:41:59;;;;;;;8.65;4.75;;;;;;;21.37;53.69;98867.72;41261619;28;20055;-70
2024/01/15 19:01:59;;;;;;;11.55;4.13;;;;;;;21.31;51.36;98880.66;41285315;28;20045;-69
2024/01/15 19:22:01;;;;;;;7.78;4.03;;;;;;;21.17;50.26;98872.38;41380357;28;20506;-70
2024/01/15 19:42:03;;;;;;;10.00;4.00;;;;;;;20.65;47.23;98854.72;41434991;28;20593;-75
2024/01/15 20:02:03;;;;;;;6.22;3.10;;;;;;;21.00;47.11;98870.63;41395960;28;20061;-74
2024/01/15 20:22:04;;;;;;;4.40;2.75;;;;;;;20.92;47.53;98945.91;41335935;28;20184;-74
2024/01/15 20:42:04;;;;;;;3.58;2.20;;;;;;;20.85;47.65;98950.09;41385362;28;20046;-73
2024/01/15 21:02:05;;;;;;;3.33;2.20;;;;;;;20.81;47.46;98926.88;41420495;28;20050;-74
2024/01/15 21:22:05;;;;;;;2.97;1.95;;;;;;;20.82;47.25;98989.03;41440423;28;20124;-74
2024/01/15 21:42:07;;;;;;;1.98;1.58;;;;;;;20.76;46.99;99017.59;41422038;28;20046;-74
2024/01/15 22:02:10;;;;;;;1.88;1.60;;;;;;;20.70;47.56;99031.34;41430646;28;20093;-74
2024/01/15 22:22:11;;;;;;;2.33;1.60;;;;;;;20.65;48.36;99044.06;41447120;28;20042;-74
2024/01/15 22:42:11;;;;;;;3.40;1.75;;;;;;;20.56;48.42;99058.94;41424934;28;20053;-73
2024/01/15 23:02:13;;;;;;;1.80;1.60;;;;;;;20.62;48.09;99060.16;41348655;28;20081;-73
2024/01/15 23:22:13;;;;;;;2.53;1.55;;;;;;;20.52;48.28;99054.13;41338209;28;20069;-74
2024/01/15 23:42:15;;;;;;;1.83;1.23;;;;;;;20.50;48.80;99071.88;41452707;28;20038;-75
